Tiempo atmosférico en la estación meteorológica de El Granado, Huelva (60 m.)

Fecha
DESCASC
Temp. máxima en grados centígrados (hora)
DESCASC
Temp. mínima en grados centígrados (hora)
DESCASC
Temp. media en grados centígrados
DESCASC
Racha de viento máxima en m/sg (hora)
DESCASC
Velocidad máxima media en intervalos de 10 minutos(hora)
DESCASC
Precipitaciones diarias en mm
DESCASC
Precipitaciones de 00:00 a 06:00 en mm
DESCASC
Precipitaciones de 06:00 a 12:00 en mm
DESCASC
Precipitaciones de 12:00 a 18:00 en mm
DESCASC
Precipitaciones de 18:00 a 24:00 en mm
DESCASC
22-10-2017 -- (--) -- (--) -- -- (--) -- (--) -- 0 0 0 --
21-10-2017 25.7 (17:00) 17.3 (23:59) 21.5 -- (--) -- (--) 0.2 0 0 0.2 0
20-10-2017 24.8 (15:30) 16.6 (02:10) 20.7 -- (--) -- (--) 0.8 0 0 0.8 0
19-10-2017 22.6 (17:40) 15.9 (00:00) 19.3 -- (--) -- (--) 2.8 2.6 0.2 0 0
18-10-2017 23.1 (16:00) 16 (00:00) 19.6 -- (--) -- (--) 4 1.6 0.4 0 2
17-10-2017 25.5 (15:10) 19.2 (00:00) 22.4 -- (--) -- (--) 0 0 0 0 0
16-10-2017 25.5 (15:40) 17.7 (00:00) 21.6 -- (--) -- (--) 0 0 0 0 0
15-10-2017 33.3 (15:50) 17.7 (00:00) 25.5 -- (--) -- (--) 0 0 0 0 0
14-10-2017 34.6 (15:40) 17.8 (00:00) 26.2 -- (--) -- (--) 0 0 0 0 0
13-10-2017 35.6 (17:00) 14.5 (00:00) 25 -- (--) -- (--) 0 0 0 0 0
12-10-2017 31 (15:50) 17 (00:00) 24 -- (--) -- (--) 0 0 0 0 0
11-10-2017 34.7 (16:40) 12.5 (00:00) 23.6 -- (--) -- (--) 0 0 0 0 0
10-10-2017 32.6 (16:40) 12.5 (00:00) 22.5 -- (--) -- (--) 0 0 0 0 0
09-10-2017 35.1 (16:10) 15.8 (00:00) 25.4 -- (--) -- (--) 0 0 0 0 0
08-10-2017 34.6 (16:50) 16.3 (00:00) 25.4 -- (--) -- (--) 0 0 0 0 0
07-10-2017 34.8 (15:10) 15.5 (00:00) 25.1 -- (--) -- (--) 0 0 0 0 0
06-10-2017 37 (16:00) 15.1 (00:00) 26.1 -- (--) -- (--) 0 0 0 0 0
05-10-2017 35.6 (18:10) 16.7 (00:00) 26.1 -- (--) -- (--) 0 0 0 0 0
04-10-2017 34.8 (17:00) 16.5 (00:00) 25.6 -- (--) -- (--) 0 0 0 0 0
03-10-2017 36.7 (16:10) 17 (00:00) 26.9 -- (--) -- (--) 0 0 0 0 0
02-10-2017 37.1 (17:20) 16.4 (00:00) 26.7 -- (--) -- (--) 0 0 0 0 0
01-10-2017 33.2 (16:30) 14.8 (00:00) 24 -- (--) -- (--) 0 0 0 0 0
30-09-2017 31.5 (17:20) 17.4 (00:00) 24.4 -- (--) -- (--) 0 0 0 0 0
29-09-2017 34.6 (16:10) 16.3 (00:00) 25.4 -- (--) -- (--) 0 0 0 0 0
28-09-2017 33.6 (17:50) 19.4 (00:00) 26.5 -- (--) -- (--) 0 0 0 0 0
27-09-2017 28.3 (16:00) 16 (00:00) 22.1 -- (--) -- (--) 0 0 0 0 0
26-09-2017 31.8 (17:00) 12.5 (00:00) 22.1 -- (--) -- (--) 0 0 0 0 0
25-09-2017 32.3 (17:30) 16.3 (00:00) 24.3 -- (--) -- (--) 0 0 0 0 0
24-09-2017 35.1 (17:10) 14.5 (00:00) 24.8 -- (--) -- (--) 0 0 0 0 0
23-09-2017 31.8 (17:50) 13.7 (00:00) 22.7 -- (--) -- (--) 0 0 0 0 0

Gráficas

Temp. máximas Temp. mínimas Temp. medias Precipitaciones Rachas de viento máximas Velocidades máximas media en intervalos de 10 minutos

Datos horarios

Fecha y hora oficial Temperatura (ºC) Velocidad del viento (km/h) Dirección del viento Racha (km/h) Dirección de racha Precipitación (mm) Presión (hPa) Tendencia (hPa) Humedad (%)
2017-10-22 23:00:00 -- -- -- -- -- -- -- -- --
2017-10-22 22:00:00 -- -- -- -- -- -- -- -- --
2017-10-22 21:00:00 -- -- -- -- -- -- -- -- --
2017-10-22 20:00:00 -- -- -- -- -- -- -- -- --
2017-10-22 19:00:00 23.6 -- -- -- -- 0 -- -- 33
2017-10-22 18:00:00 24.9 -- -- -- -- 0 -- -- 31
2017-10-22 17:00:00 25 -- -- -- -- 0 -- -- 31
2017-10-22 16:00:00 25.1 -- -- -- -- 0 -- -- 31
2017-10-22 15:00:00 23.8 -- -- -- -- 0 -- -- 34
2017-10-22 14:00:00 22.1 -- -- -- -- 0 -- -- 40
2017-10-22 13:00:00 20.4 -- -- -- -- 0 -- -- 48
2017-10-22 12:00:00 17.9 -- -- -- -- 0 -- -- 61
2017-10-22 11:00:00 14.7 -- -- -- -- 0 -- -- 74
2017-10-22 10:00:00 11.4 -- -- -- -- 0 -- -- 88
2017-10-22 09:00:00 10.8 -- -- -- -- 0 -- -- 89
2017-10-22 08:00:00 11.1 -- -- -- -- 0 -- -- 90
2017-10-22 07:00:00 11.6 -- -- -- -- 0 -- -- 89
2017-10-22 06:00:00 12 -- -- -- -- 0 -- -- 88
2017-10-22 05:00:00 12.5 -- -- -- -- 0 -- -- 85
2017-10-22 04:00:00 13.3 -- -- -- -- 0 -- -- 82
2017-10-22 03:00:00 13.9 -- -- -- -- 0 -- -- 78
2017-10-22 02:00:00 14.8 -- -- -- -- 0 -- -- 71
2017-10-22 01:00:00 16.2 -- -- -- -- 0 -- -- 64
2017-10-22 00:00:00 17.3 -- -- -- -- 0 -- -- 59
2017-10-21 23:00:00 18.3 -- -- -- -- 0 -- -- 53
2017-10-21 22:00:00 19.5 -- -- -- -- 0 -- -- 49
2017-10-21 21:00:00 21 -- -- -- -- 0 -- -- 52
2017-10-21 20:00:00 22.1 -- -- -- -- 0 -- -- 60
2017-10-21 19:00:00 23.8 -- -- -- -- 0 -- -- 56
2017-10-21 18:00:00 24.9 -- -- -- -- 0 -- -- 54
2017-10-21 17:00:00 25.7 -- -- -- -- 0.2 -- -- 51
2017-10-21 16:00:00 25.3 -- -- -- -- 0 -- -- 53
2017-10-21 15:00:00 24.4 -- -- -- -- 0 -- -- 58
2017-10-21 14:00:00 23.3 -- -- -- -- 0 -- -- 66
2017-10-21 13:00:00 22.4 -- -- -- -- 0 -- -- 70
2017-10-21 12:00:00 21.5 -- -- -- -- 0 -- -- 77
2017-10-21 11:00:00 19.6 -- -- -- -- 0 -- -- 89
2017-10-21 10:00:00 18.3 -- -- -- -- 0 -- -- 95
2017-10-21 09:00:00 17.5 -- -- -- -- 0 -- -- 96
2017-10-21 08:00:00 18.1 -- -- -- -- 0 -- -- 93
2017-10-21 07:00:00 18.9 -- -- -- -- 0 -- -- 91
2017-10-21 06:00:00 18.8 -- -- -- -- 0 -- -- 92
2017-10-21 05:00:00 18.6 -- -- -- -- 0 -- -- 93
2017-10-21 04:00:00 18.3 -- -- -- -- 0 -- -- 96
2017-10-21 03:00:00 18 -- -- -- -- 0 -- -- 97
2017-10-21 02:00:00 18 -- -- -- -- 0 -- -- 96
2017-10-21 01:00:00 18.6 -- -- -- -- 0 -- -- 96
2017-10-21 00:00:00 19.2 -- -- -- -- 0 -- -- 95
2017-10-20 23:00:00 19.7 -- -- -- -- 0 -- -- 94
2017-10-20 22:00:00 20.3 -- -- -- -- 0 -- -- 93
2017-10-20 21:00:00 20.8 -- -- -- -- 0 -- -- 93
2017-10-20 20:00:00 21.3 -- -- -- -- 0 -- -- 89
2017-10-20 19:00:00 22.3 -- -- -- -- 0 -- -- 84
2017-10-20 18:00:00 22.9 -- -- -- -- 0 -- -- 81
2017-10-20 17:00:00 23 -- -- -- -- 0 -- -- 81
2017-10-20 16:00:00 22 -- -- -- -- 0.8 -- -- 87
2017-10-20 15:00:00 22.4 -- -- -- -- 0 -- -- 81
2017-10-20 14:00:00 22 -- -- -- -- 0 -- -- 80
2017-10-20 13:00:00 21.8 -- -- -- -- 0 -- -- 82
2017-10-20 12:00:00 20.8 -- -- -- -- 0 -- -- 86
2017-10-20 11:00:00 19.1 -- -- -- -- 0 -- -- 97
2017-10-20 10:00:00 18 -- -- -- -- 0 -- -- 97
2017-10-20 09:00:00 17.5 -- -- -- -- 0 -- -- 96
2017-10-20 08:00:00 17.9 -- -- -- -- 0 -- -- 91
2017-10-20 07:00:00 17.6 -- -- -- -- 0 -- -- 91
2017-10-20 06:00:00 17.3 -- -- -- -- 0 -- -- 91
2017-10-20 05:00:00 17.2 -- -- -- -- 0 -- -- 89
2017-10-20 04:00:00 17 -- -- -- -- 0 -- -- 90
2017-10-20 03:00:00 16.7 -- -- -- -- 0 -- -- 91
2017-10-20 02:00:00 16.7 -- -- -- -- 0 -- -- 89
2017-10-20 01:00:00 16.7 -- -- -- -- 0 -- -- 87
2017-10-20 00:00:00 17.5 -- -- -- -- 0 -- -- 84
2017-10-19 23:00:00 18.3 -- -- -- -- 0 -- -- 80
2017-10-19 22:00:00 19.2 -- -- -- -- 0 -- -- 76
2017-10-19 21:00:00 20.4 -- -- -- -- 0 -- -- 69
2017-10-19 20:00:00 21.4 -- -- -- -- 0 -- -- 68
2017-10-19 19:00:00 21.9 -- -- -- -- 0 -- -- 64
2017-10-19 18:00:00 22.6 -- -- -- -- 0 -- -- 62
2017-10-19 17:00:00 22.1 -- -- -- -- 0 -- -- 64
2017-10-19 16:00:00 22 -- -- -- -- 0 -- -- 69
2017-10-19 15:00:00 21.1 -- -- -- -- 0 -- -- 70
2017-10-19 14:00:00 21.2 -- -- -- -- 0 -- -- 70
2017-10-19 13:00:00 19.2 -- -- -- -- 0 -- -- 82
2017-10-19 12:00:00 18 -- -- -- -- 0 -- -- 88
2017-10-19 11:00:00 17.3 -- -- -- -- 0 -- -- 93
2017-10-19 10:00:00 16.4 -- -- -- -- 0.2 -- -- 96
2017-10-19 09:00:00 16.1 -- -- -- -- 0 -- -- 97
2017-10-19 08:00:00 16.5 -- -- -- -- 0 -- -- 97
2017-10-19 07:00:00 16.2 -- -- -- -- 0 -- -- 97
2017-10-19 06:00:00 15.9 -- -- -- -- 0 -- -- 97
2017-10-19 05:00:00 16.1 -- -- -- -- 0 -- -- 96
2017-10-19 04:00:00 16.1 -- -- -- -- 0 -- -- 96
2017-10-19 03:00:00 16.2 -- -- -- -- 0 -- -- 96
2017-10-19 02:00:00 16 -- -- -- -- 0 -- -- 95
2017-10-19 01:00:00 16 -- -- -- -- 2.6 -- -- 96
2017-10-19 00:00:00 16.3 -- -- -- -- 2 -- -- 92
2017-10-18 23:00:00 17.4 -- -- -- -- 0 -- -- 82
2017-10-18 22:00:00 17.6 -- -- -- -- 0 -- -- 86
2017-10-18 21:00:00 18.7 -- -- -- -- 0 -- -- 80
2017-10-18 20:00:00 19.6 -- -- -- -- 0 -- -- 69
2017-10-18 19:00:00 20.8 -- -- -- -- 0 -- -- 61
2017-10-18 18:00:00 21.4 -- -- -- -- 0 -- -- 57
2017-10-18 17:00:00 22.4 -- -- -- -- 0 -- -- 59
2017-10-18 16:00:00 23.1 -- -- -- -- 0 -- -- 58
2017-10-18 15:00:00 20.8 -- -- -- -- 0 -- -- 75
2017-10-18 14:00:00 21.6 -- -- -- -- 0 -- -- 67
2017-10-18 13:00:00 18.8 -- -- -- -- 0 -- -- 78
2017-10-18 12:00:00 17.9 -- -- -- -- 0 -- -- 91
2017-10-18 11:00:00 16.9 -- -- -- -- 0.2 -- -- 91
2017-10-18 10:00:00 16.6 -- -- -- -- 0.2 -- -- 96
2017-10-18 09:00:00 16 -- -- -- -- 0 -- -- 95
2017-10-18 08:00:00 16 -- -- -- -- 0 -- -- 96
2017-10-18 07:00:00 16 -- -- -- -- 0 -- -- 95
2017-10-18 06:00:00 16.4 -- -- -- -- 0.2 -- -- 95
2017-10-18 05:00:00 16.4 -- -- -- -- 1.2 -- -- 94
2017-10-18 04:00:00 16.5 -- -- -- -- 0.2 -- -- 91
2017-10-18 03:00:00 17.2 -- -- -- -- 0 -- -- 84
2017-10-18 02:00:00 18.2 -- -- -- -- 0 -- -- 72
2017-10-18 01:00:00 19.3 -- -- -- -- 0 -- -- 58
2017-10-18 00:00:00 19.8 -- -- -- -- 0 -- -- 54
2017-10-17 23:00:00 20.3 -- -- -- -- 0 -- -- 48
2017-10-17 22:00:00 21.1 -- -- -- -- 0 -- -- 44
2017-10-17 21:00:00 22.5 -- -- -- -- 0 -- -- 47
2017-10-17 20:00:00 23.7 -- -- -- -- 0 -- -- 54
2017-10-17 19:00:00 24.2 -- -- -- -- 0 -- -- 47
2017-10-17 18:00:00 25 -- -- -- -- 0 -- -- 44
2017-10-17 17:00:00 25.1 -- -- -- -- 0 -- -- 45
2017-10-17 16:00:00 25.3 -- -- -- -- 0 -- -- 45
2017-10-17 15:00:00 25.3 -- -- -- -- 0 -- -- 45
2017-10-17 14:00:00 24.5 -- -- -- -- 0 -- -- 49
2017-10-17 13:00:00 22.9 -- -- -- -- 0 -- -- 53
2017-10-17 12:00:00 21.5 -- -- -- -- 0 -- -- 61
2017-10-17 11:00:00 20 -- -- -- -- 0 -- -- 71
2017-10-17 10:00:00 19.4 -- -- -- -- 0 -- -- 77
2017-10-17 09:00:00 19.4 -- -- -- -- 0 -- -- 79
2017-10-17 08:00:00 20.1 -- -- -- -- 0 -- -- 79
2017-10-17 07:00:00 20.8 -- -- -- -- 0 -- -- 82
2017-10-17 06:00:00 21.4 -- -- -- -- 0 -- -- 88
2017-10-17 05:00:00 21.4 -- -- -- -- 0 -- -- 88
2017-10-17 04:00:00 21.4 -- -- -- -- 0 -- -- 86
2017-10-17 03:00:00 21.6 -- -- -- -- 0 -- -- 84
2017-10-17 02:00:00 21.7 -- -- -- -- 0 -- -- 82
2017-10-17 01:00:00 21.8 -- -- -- -- 0 -- -- 81
2017-10-17 00:00:00 22.1 -- -- -- -- 0 -- -- 79
2017-10-16 23:00:00 22.2 -- -- -- -- 0 -- -- 78
2017-10-16 22:00:00 22.3 -- -- -- -- 0 -- -- 76
2017-10-16 21:00:00 22.6 -- -- -- -- 0 -- -- 72
2017-10-16 20:00:00 23 -- -- -- -- 0 -- -- 70
2017-10-16 19:00:00 23.5 -- -- -- -- 0 -- -- 67
2017-10-16 18:00:00 24.2 -- -- -- -- 0 -- -- 63
2017-10-16 17:00:00 25 -- -- -- -- 0 -- -- 60
2017-10-16 16:00:00 25.3 -- -- -- -- 0 -- -- 58
2017-10-16 15:00:00 24.8 -- -- -- -- 0 -- -- 59
2017-10-16 14:00:00 23.9 -- -- -- -- 0 -- -- 62
2017-10-16 13:00:00 23.7 -- -- -- -- 0 -- -- 61
2017-10-16 12:00:00 23.1 -- -- -- -- 0 -- -- 58
2017-10-16 11:00:00 21.8 -- -- -- -- 0 -- -- 47
2017-10-16 10:00:00 19.8 -- -- -- -- 0 -- -- 52
2017-10-16 09:00:00 18.4 -- -- -- -- 0 -- -- 51
2017-10-16 08:00:00 18.3 -- -- -- -- 0 -- -- 71
2017-10-16 07:00:00 17.7 -- -- -- -- 0 -- -- 83
2017-10-16 06:00:00 18.1 -- -- -- -- 0 -- -- 83
2017-10-16 05:00:00 18.3 -- -- -- -- 0 -- -- 82
2017-10-16 04:00:00 19.3 -- -- -- -- 0 -- -- 77
2017-10-16 03:00:00 20.3 -- -- -- -- 0 -- -- 73
2017-10-16 02:00:00 20.7 -- -- -- -- 0 -- -- 70
2017-10-16 01:00:00 20.9 -- -- -- -- 0 -- -- 68
2017-10-16 00:00:00 22 -- -- -- -- 0 -- -- 63
2017-10-15 23:00:00 22.9 -- -- -- -- 0 -- -- 60
2017-10-15 22:00:00 23.9 -- -- -- -- 0 -- -- 55
2017-10-15 21:00:00 25.4 -- -- -- -- 0 -- -- 49
2017-10-15 20:00:00 27.1 -- -- -- -- 0 -- -- 43
2017-10-15 19:00:00 29.5 -- -- -- -- 0 -- -- 37
2017-10-15 18:00:00 31.3 -- -- -- -- 0 -- -- 32
2017-10-15 17:00:00 32.1 -- -- -- -- 0 -- -- 29
2017-10-15 16:00:00 33 -- -- -- -- 0 -- -- 26
2017-10-15 15:00:00 32.6 -- -- -- -- 0 -- -- 22
2017-10-15 14:00:00 31.9 -- -- -- -- 0 -- -- 23
2017-10-15 13:00:00 30.3 -- -- -- -- 0 -- -- 25
2017-10-15 12:00:00 28.1 -- -- -- -- 0 -- -- 29
2017-10-15 11:00:00 24.2 -- -- -- -- 0 -- -- 40
2017-10-15 10:00:00 19.4 -- -- -- -- 0 -- -- 55
2017-10-15 09:00:00 18.1 -- -- -- -- 0 -- -- 61
2017-10-15 08:00:00 17.7 -- -- -- -- 0 -- -- 67
2017-10-15 07:00:00 18.5 -- -- -- -- 0 -- -- 66
2017-10-15 06:00:00 19.4 -- -- -- -- 0 -- -- 60
2017-10-15 05:00:00 19.9 -- -- -- -- 0 -- -- 58
2017-10-15 04:00:00 20.7 -- -- -- -- 0 -- -- 53
2017-10-15 03:00:00 21.8 -- -- -- -- 0 -- -- 53
2017-10-15 02:00:00 22.4 -- -- -- -- 0 -- -- 51
2017-10-15 01:00:00 22.9 -- -- -- -- 0 -- -- 49
2017-10-15 00:00:00 23.9 -- -- -- -- 0 -- -- 43
2017-10-14 23:00:00 24.7 -- -- -- -- 0 -- -- 40
2017-10-14 22:00:00 25.9 -- -- -- -- 0 -- -- 36
2017-10-14 21:00:00 27.3 -- -- -- -- 0 -- -- 33
2017-10-14 20:00:00 28.3 -- -- -- -- 0 -- -- 30
2017-10-14 19:00:00 29.6 -- -- -- -- 0 -- -- 28
2017-10-14 18:00:00 30.5 -- -- -- -- 0 -- -- 24
2017-10-14 17:00:00 31.8 -- -- -- -- 0 -- -- 22
2017-10-14 16:00:00 34.2 -- -- -- -- 0 -- -- 21
2017-10-14 15:00:00 34.2 -- -- -- -- 0 -- -- 20
2017-10-14 14:00:00 32.7 -- -- -- -- 0 -- -- 22
2017-10-14 13:00:00 30.6 -- -- -- -- 0 -- -- 27
2017-10-14 12:00:00 24.5 -- -- -- -- 0 -- -- 50
2017-10-14 11:00:00 20.8 -- -- -- -- 0 -- -- 60
2017-10-14 10:00:00 18.7 -- -- -- -- 0 -- -- 65
2017-10-14 09:00:00 17.8 -- -- -- -- 0 -- -- 69
2017-10-14 08:00:00 17.9 -- -- -- -- 0 -- -- 71
2017-10-14 07:00:00 18.4 -- -- -- -- 0 -- -- 68
2017-10-14 06:00:00 18.7 -- -- -- -- 0 -- -- 66
2017-10-14 05:00:00 19.2 -- -- -- -- 0 -- -- 65
2017-10-14 04:00:00 -- -- -- -- -- -- -- -- --
2017-10-14 03:00:00 -- -- -- -- -- -- -- -- --
2017-10-14 02:00:00 -- -- -- -- -- -- -- -- --
2017-10-14 01:00:00 -- -- -- -- -- -- -- -- --
2017-10-14 00:00:00 -- -- -- -- -- -- -- -- --
2017-10-13 23:00:00 22.1 -- -- -- -- 0 -- -- 49
2017-10-13 22:00:00 24.2 -- -- -- -- 0 -- -- 42
2017-10-13 21:00:00 26.4 -- -- -- -- 0 -- -- 37
2017-10-13 20:00:00 28.9 -- -- -- -- 0 -- -- 32
2017-10-13 19:00:00 31.2 -- -- -- -- 0 -- -- 28
2017-10-13 18:00:00 33.5 -- -- -- -- 0 -- -- 25
2017-10-13 17:00:00 35.6 -- -- -- -- 0 -- -- 23
2017-10-13 16:00:00 32.8 -- -- -- -- 0 -- -- 28
2017-10-13 15:00:00 30.8 -- -- -- -- 0 -- -- 33
2017-10-13 14:00:00 29.4 -- -- -- -- 0 -- -- 39
2017-10-13 13:00:00 26.4 -- -- -- -- 0 -- -- 46
2017-10-13 12:00:00 21.6 -- -- -- -- 0 -- -- 64
2017-10-13 11:00:00 18.8 -- -- -- -- 0 -- -- 75
2017-10-13 10:00:00 15.5 -- -- -- -- 0 -- -- 88
2017-10-13 09:00:00 14.5 -- -- -- -- 0 -- -- 92
2017-10-13 08:00:00 14.8 -- -- -- -- 0 -- -- 90
2017-10-13 07:00:00 15 -- -- -- -- 0 -- -- 88
2017-10-13 06:00:00 15.5 -- -- -- -- 0 -- -- 87
2017-10-13 05:00:00 16.1 -- -- -- -- 0 -- -- 85
2017-10-13 04:00:00 17 -- -- -- -- 0 -- -- 81
2017-10-13 03:00:00 17.8 -- -- -- -- 0 -- -- 75
2017-10-13 02:00:00 18.8 -- -- -- -- 0 -- -- 70
2017-10-13 01:00:00 20.1 -- -- -- -- 0 -- -- 65
2017-10-13 00:00:00 21.5 -- -- -- -- 0 -- -- 59
2017-10-12 23:00:00 22.3 -- -- -- -- 0 -- -- 56
2017-10-12 22:00:00 23.5 -- -- -- -- 0 -- -- 54
2017-10-12 21:00:00 25.6 -- -- -- -- 0 -- -- 47
2017-10-12 20:00:00 27.1 -- -- -- -- 0 -- -- 43
2017-10-12 19:00:00 28.9 -- -- -- -- 0 -- -- 40
2017-10-12 18:00:00 30 -- -- -- -- 0 -- -- 38
2017-10-12 17:00:00 30.4 -- -- -- -- 0 -- -- 40
2017-10-12 16:00:00 30.5 -- -- -- -- 0 -- -- 38
2017-10-12 15:00:00 30.2 -- -- -- -- 0 -- -- 44
2017-10-12 14:00:00 29.9 -- -- -- -- 0 -- -- 49
2017-10-12 13:00:00 28.4 -- -- -- -- 0 -- -- 55
2017-10-12 12:00:00 26.2 -- -- -- -- 0 -- -- 57
2017-10-12 11:00:00 23.7 -- -- -- -- 0 -- -- 59
2017-10-12 10:00:00 18.7 -- -- -- -- 0 -- -- 65
2017-10-12 09:00:00 17.8 -- -- -- -- 0 -- -- 66
2017-10-12 08:00:00 17.4 -- -- -- -- 0 -- -- 67
2017-10-12 07:00:00 18 -- -- -- -- 0 -- -- 72
2017-10-12 06:00:00 18.5 -- -- -- -- 0 -- -- 66
2017-10-12 05:00:00 18.3 -- -- -- -- 0 -- -- 68
2017-10-12 04:00:00 18.4 -- -- -- -- 0 -- -- 69
2017-10-12 03:00:00 18.7 -- -- -- -- 0 -- -- 65
2017-10-12 02:00:00 19.8 -- -- -- -- 0 -- -- 60
2017-10-12 01:00:00 20.8 -- -- -- -- 0 -- -- 56
2017-10-12 00:00:00 22.9 -- -- -- -- 0 -- -- 49
2017-10-11 23:00:00 24.7 -- -- -- -- 0 -- -- 46
2017-10-11 22:00:00 26.2 -- -- -- -- 0 -- -- 42
2017-10-11 21:00:00 27.5 -- -- -- -- 0 -- -- 38
2017-10-11 20:00:00 29.1 -- -- -- -- 0 -- -- 31
2017-10-11 19:00:00 31.2 -- -- -- -- 0 -- -- 28
2017-10-11 18:00:00 33.1 -- -- -- -- 0 -- -- 24
2017-10-11 17:00:00 33.3 -- -- -- -- 0 -- -- 23
2017-10-11 16:00:00 34.2 -- -- -- -- 0 -- -- 22
2017-10-11 15:00:00 34.1 -- -- -- -- 0 -- -- 21
2017-10-11 14:00:00 30.2 -- -- -- -- 0 -- -- 29
2017-10-11 13:00:00 27.3 -- -- -- -- 0 -- -- 34
2017-10-11 12:00:00 22.6 -- -- -- -- 0 -- -- 45
2017-10-11 11:00:00 18.1 -- -- -- -- 0 -- -- 60
2017-10-11 10:00:00 14.1 -- -- -- -- 0 -- -- 78
2017-10-11 09:00:00 12.7 -- -- -- -- 0 -- -- 82
2017-10-11 08:00:00 12.9 -- -- -- -- 0 -- -- 83
2017-10-11 07:00:00 13 -- -- -- -- 0 -- -- 83
2017-10-11 06:00:00 13.5 -- -- -- -- 0 -- -- 79
2017-10-11 05:00:00 14.1 -- -- -- -- 0 -- -- 77
2017-10-11 04:00:00 14.8 -- -- -- -- 0 -- -- 73
2017-10-11 03:00:00 15.7 -- -- -- -- 0 -- -- 70
2017-10-11 02:00:00 16.7 -- -- -- -- 0 -- -- 62
2017-10-11 01:00:00 18 -- -- -- -- 0 -- -- 63
2017-10-11 00:00:00 19.7 -- -- -- -- 0 -- -- 55
2017-10-10 23:00:00 21.2 -- -- -- -- 0 -- -- 49
2017-10-10 22:00:00 23.2 -- -- -- -- 0 -- -- 45
2017-10-10 21:00:00 25.4 -- -- -- -- 0 -- -- 40
2017-10-10 20:00:00 28 -- -- -- -- 0 -- -- 33
2017-10-10 19:00:00 30.2 -- -- -- -- 0 -- -- 29
2017-10-10 18:00:00 31.5 -- -- -- -- 0 -- -- 27
2017-10-10 17:00:00 32.4 -- -- -- -- 0 -- -- 26
2017-10-10 16:00:00 32 -- -- -- -- 0 -- -- 28
2017-10-10 15:00:00 31.9 -- -- -- -- 0 -- -- 31
2017-10-10 14:00:00 30 -- -- -- -- 0 -- -- 32
2017-10-10 13:00:00 27.5 -- -- -- -- 0 -- -- 37
2017-10-10 12:00:00 22.3 -- -- -- -- 0 -- -- 40
2017-10-10 11:00:00 18.1 -- -- -- -- 0 -- -- 54
2017-10-10 10:00:00 13.3 -- -- -- -- 0 -- -- 72
2017-10-10 09:00:00 12.6 -- -- -- -- 0 -- -- 72
2017-10-10 08:00:00 13.2 -- -- -- -- 0 -- -- 68
2017-10-10 07:00:00 14 -- -- -- -- 0 -- -- 67
2017-10-10 06:00:00 14.7 -- -- -- -- 0 -- -- 61
2017-10-10 05:00:00 15.8 -- -- -- -- 0 -- -- 60
2017-10-10 04:00:00 17.2 -- -- -- -- 0 -- -- 53
2017-10-10 03:00:00 18.6 -- -- -- -- 0 -- -- 49
2017-10-10 02:00:00 19.3 -- -- -- -- 0 -- -- 49
2017-10-10 01:00:00 20.5 -- -- -- -- 0 -- -- 46
2017-10-10 00:00:00 22.2 -- -- -- -- 0 -- -- 49
2017-10-09 23:00:00 24.1 -- -- -- -- 0 -- -- 39
2017-10-09 22:00:00 25.5 -- -- -- -- 0 -- -- 37
2017-10-09 21:00:00 27.4 -- -- -- -- 0 -- -- 36
2017-10-09 20:00:00 29.6 -- -- -- -- 0 -- -- 28
2017-10-09 19:00:00 31.3 -- -- -- -- 0 -- -- 25
2017-10-09 18:00:00 32.7 -- -- -- -- 0 -- -- 26
2017-10-09 17:00:00 33.6 -- -- -- -- 0 -- -- 25
2017-10-09 16:00:00 -- -- -- -- -- 0 -- -- --
2017-10-09 15:00:00 32.5 -- -- -- -- 0 -- -- 26
2017-10-09 14:00:00 31.4 -- -- -- -- 0 -- -- 29
2017-10-09 13:00:00 27.6 -- -- -- -- 0 -- -- 41
2017-10-09 12:00:00 23.9 -- -- -- -- 0 -- -- 55
2017-10-09 11:00:00 20.2 -- -- -- -- 0 -- -- 69
2017-10-09 10:00:00 16.3 -- -- -- -- 0 -- -- 85
2017-10-09 09:00:00 15.8 -- -- -- -- 0 -- -- 87
2017-10-09 08:00:00 16.3 -- -- -- -- 0 -- -- 84
2017-10-09 07:00:00 16.6 -- -- -- -- 0 -- -- 81
2017-10-09 06:00:00 17.2 -- -- -- -- 0 -- -- 80
2017-10-09 05:00:00 18 -- -- -- -- 0 -- -- 76
2017-10-09 04:00:00 18.5 -- -- -- -- 0 -- -- 73
2017-10-09 03:00:00 19.3 -- -- -- -- 0 -- -- 66
2017-10-09 02:00:00 20.5 -- -- -- -- 0 -- -- 58
2017-10-09 01:00:00 21.9 -- -- -- -- 0 -- -- 50
2017-10-09 00:00:00 23.1 -- -- -- -- 0 -- -- 44
2017-10-08 23:00:00 24.4 -- -- -- -- 0 -- -- 42
2017-10-08 22:00:00 24.9 -- -- -- -- 0 -- -- 48
2017-10-08 21:00:00 27.6 -- -- -- -- 0 -- -- 40
2017-10-08 20:00:00 30.6 -- -- -- -- 0 -- -- 33
2017-10-08 19:00:00 33.3 -- -- -- -- 0 -- -- 27
2017-10-08 18:00:00 32.4 -- -- -- -- 0 -- -- 28
2017-10-08 17:00:00 34.3 -- -- -- -- 0 -- -- 26
2017-10-08 16:00:00 33.8 -- -- -- -- 0 -- -- 26
2017-10-08 15:00:00 32.8 -- -- -- -- 0 -- -- 29
2017-10-08 14:00:00 30.7 -- -- -- -- 0 -- -- 35
2017-10-08 13:00:00 28.5 -- -- -- -- 0 -- -- 43
2017-10-08 12:00:00 25.6 -- -- -- -- 0 -- -- 50
2017-10-08 11:00:00 21.3 -- -- -- -- 0 -- -- 75
2017-10-08 10:00:00 16.9 -- -- -- -- 0 -- -- 94
2017-10-08 09:00:00 16.3 -- -- -- -- 0 -- -- 94
2017-10-08 08:00:00 16.8 -- -- -- -- 0 -- -- 93
2017-10-08 07:00:00 17.1 -- -- -- -- 0 -- -- 90
2017-10-08 06:00:00 17.6 -- -- -- -- 0 -- -- 91
2017-10-08 05:00:00 18.5 -- -- -- -- 0 -- -- 87
2017-10-08 04:00:00 19.2 -- -- -- -- 0 -- -- 84
2017-10-08 03:00:00 19.9 -- -- -- -- 0 -- -- 80
2017-10-08 02:00:00 20.8 -- -- -- -- 0 -- -- 76
2017-10-08 01:00:00 21.6 -- -- -- -- 0 -- -- 71
2017-10-08 00:00:00 22.1 -- -- -- -- 0 -- -- 67
2017-10-07 23:00:00 22.2 -- -- -- -- 0 -- -- 69
2017-10-07 22:00:00 23.3 -- -- -- -- 0 -- -- 64
2017-10-07 21:00:00 24.2 -- -- -- -- 0 -- -- 61
2017-10-07 20:00:00 26.5 -- -- -- -- 0 -- -- 49
2017-10-07 19:00:00 28.1 -- -- -- -- 0 -- -- 40
2017-10-07 18:00:00 30.6 -- -- -- -- 0 -- -- 39
2017-10-07 17:00:00 32.5 -- -- -- -- 0 -- -- 32
2017-10-07 16:00:00 34.1 -- -- -- -- 0 -- -- 29
2017-10-07 15:00:00 34.5 -- -- -- -- 0 -- -- 28
2017-10-07 14:00:00 33.5 -- -- -- -- 0 -- -- 25
2017-10-07 13:00:00 29.1 -- -- -- -- 0 -- -- 31
2017-10-07 12:00:00 25.2 -- -- -- -- 0 -- -- 40
2017-10-07 11:00:00 21.4 -- -- -- -- 0 -- -- 48
2017-10-07 10:00:00 16.4 -- -- -- -- 0 -- -- 62
2017-10-07 09:00:00 15.5 -- -- -- -- 0 -- -- 70
2017-10-07 08:00:00 15.7 -- -- -- -- 0 -- -- 71
2017-10-07 07:00:00 16 -- -- -- -- 0 -- -- 66
2017-10-07 06:00:00 16.8 -- -- -- -- 0 -- -- 65
2017-10-07 05:00:00 17.6 -- -- -- -- 0 -- -- 64
2017-10-07 04:00:00 18.4 -- -- -- -- 0 -- -- 60
2017-10-07 03:00:00 19.2 -- -- -- -- 0 -- -- 59
2017-10-07 02:00:00 20.8 -- -- -- -- 0 -- -- 61
2017-10-07 01:00:00 22.4 -- -- -- -- 0 -- -- 50
2017-10-07 00:00:00 24.3 -- -- -- -- 0 -- -- 43
2017-10-06 23:00:00 25.4 -- -- -- -- 0 -- -- 40
2017-10-06 22:00:00 26 -- -- -- -- 0 -- -- 39
2017-10-06 21:00:00 27.8 -- -- -- -- 0 -- -- 38
2017-10-06 20:00:00 31.2 -- -- -- -- 0 -- -- 29
2017-10-06 19:00:00 33.7 -- -- -- -- 0 -- -- 25
2017-10-06 18:00:00 35.1 -- -- -- -- 0 -- -- 24
2017-10-06 17:00:00 36.4 -- -- -- -- 0 -- -- 24
2017-10-06 16:00:00 37 -- -- -- -- 0 -- -- 22
2017-10-06 15:00:00 36.1 -- -- -- -- 0 -- -- 24
2017-10-06 14:00:00 33.6 -- -- -- -- 0 -- -- 29
2017-10-06 13:00:00 30.1 -- -- -- -- 0 -- -- 36
2017-10-06 12:00:00 25.3 -- -- -- -- 0 -- -- 47
2017-10-06 11:00:00 21.3 -- -- -- -- 0 -- -- 60
2017-10-06 10:00:00 16.2 -- -- -- -- 0 -- -- 79
2017-10-06 09:00:00 15.1 -- -- -- -- 0 -- -- 84
2017-10-06 08:00:00 15.5 -- -- -- -- 0 -- -- 82
2017-10-06 07:00:00 15.9 -- -- -- -- 0 -- -- 81
2017-10-06 06:00:00 16.7 -- -- -- -- 0 -- -- 79
2017-10-06 05:00:00 17.4 -- -- -- -- 0 -- -- 75
2017-10-06 04:00:00 18.3 -- -- -- -- 0 -- -- 73
2017-10-06 03:00:00 19.6 -- -- -- -- 0 -- -- 70
2017-10-06 02:00:00 20.8 -- -- -- -- 0 -- -- 65
2017-10-06 01:00:00 22.2 -- -- -- -- 0 -- -- 57
2017-10-06 00:00:00 23.6 -- -- -- -- 0 -- -- 51
2017-10-05 23:00:00 25.6 -- -- -- -- 0 -- -- 45
2017-10-05 22:00:00 27.3 -- -- -- -- 0 -- -- 41
2017-10-05 21:00:00 29.5 -- -- -- -- 0 -- -- 36
2017-10-05 20:00:00 31.4 -- -- -- -- 0 -- -- 33
2017-10-05 19:00:00 33.5 -- -- -- -- 0 -- -- 31
2017-10-05 18:00:00 35.5 -- -- -- -- 0 -- -- 26
2017-10-05 17:00:00 34.3 -- -- -- -- 0 -- -- 27
2017-10-05 16:00:00 34.2 -- -- -- -- 0 -- -- 28
2017-10-05 15:00:00 32.8 -- -- -- -- 0 -- -- 31
2017-10-05 14:00:00 31.1 -- -- -- -- 0 -- -- 36
2017-10-05 13:00:00 29.2 -- -- -- -- 0 -- -- 39
2017-10-05 12:00:00 26.2 -- -- -- -- 0 -- -- 45
2017-10-05 11:00:00 22 -- -- -- -- 0 -- -- 60
2017-10-05 10:00:00 17.8 -- -- -- -- 0 -- -- 76
2017-10-05 09:00:00 16.8 -- -- -- -- 0 -- -- 81
2017-10-05 08:00:00 -- -- -- -- -- -- -- -- --
2017-10-05 07:00:00 17.4 -- -- -- -- 0 -- -- 81
2017-10-05 06:00:00 17.8 -- -- -- -- 0 -- -- 80
2017-10-05 05:00:00 18.5 -- -- -- -- 0 -- -- 78
2017-10-05 04:00:00 19.3 -- -- -- -- 0 -- -- 75
2017-10-05 03:00:00 20.2 -- -- -- -- 0 -- -- 72
2017-10-05 02:00:00 21 -- -- -- -- 0 -- -- 68
2017-10-05 01:00:00 22.2 -- -- -- -- 0 -- -- 64
2017-10-05 00:00:00 23.6 -- -- -- -- 0 -- -- 58
2017-10-04 23:00:00 24.6 -- -- -- -- 0 -- -- 55
2017-10-04 22:00:00 25.7 -- -- -- -- 0 -- -- 52
2017-10-04 21:00:00 26.8 -- -- -- -- 0 -- -- 49
2017-10-04 20:00:00 29 -- -- -- -- 0 -- -- 42
2017-10-04 19:00:00 32.2 -- -- -- -- 0 -- -- 33
2017-10-04 18:00:00 34.1 -- -- -- -- 0 -- -- 30
2017-10-04 17:00:00 34.8 -- -- -- -- 0 -- -- 30
2017-10-04 16:00:00 34.4 -- -- -- -- 0 -- -- 31
2017-10-04 15:00:00 33.3 -- -- -- -- 0 -- -- 34
2017-10-04 14:00:00 32.2 -- -- -- -- 0 -- -- 36
2017-10-04 13:00:00 30.1 -- -- -- -- 0 -- -- 42
2017-10-04 12:00:00 27.6 -- -- -- -- 0 -- -- 49
2017-10-04 11:00:00 23.7 -- -- -- -- 0 -- -- 62
2017-10-04 10:00:00 17.7 -- -- -- -- 0 -- -- 81
2017-10-04 09:00:00 16.5 -- -- -- -- 0 -- -- 84
2017-10-04 08:00:00 16.8 -- -- -- -- 0 -- -- 80
2017-10-04 07:00:00 17.1 -- -- -- -- 0 -- -- 78
2017-10-04 06:00:00 17.7 -- -- -- -- 0 -- -- 75
2017-10-04 05:00:00 18.4 -- -- -- -- 0 -- -- 74
2017-10-04 04:00:00 19.1 -- -- -- -- 0 -- -- 72
2017-10-04 03:00:00 19.9 -- -- -- -- 0 -- -- 67
2017-10-04 02:00:00 21 -- -- -- -- 0 -- -- 65
2017-10-04 01:00:00 22.1 -- -- -- -- 0 -- -- 62
2017-10-04 00:00:00 23.3 -- -- -- -- 0 -- -- 56
2017-10-03 23:00:00 24.5 -- -- -- -- 0 -- -- 50
2017-10-03 22:00:00 25.9 -- -- -- -- 0 -- -- 47
2017-10-03 21:00:00 28 -- -- -- -- 0 -- -- 40
2017-10-03 20:00:00 31.2 -- -- -- -- 0 -- -- 34
2017-10-03 19:00:00 34 -- -- -- -- 0 -- -- 30
2017-10-03 18:00:00 34.4 -- -- -- -- 0 -- -- 29
2017-10-03 17:00:00 34.2 -- -- -- -- 0 -- -- 30
2017-10-03 16:00:00 35.9 -- -- -- -- 0 -- -- 28
2017-10-03 15:00:00 34.9 -- -- -- -- 0 -- -- 30
2017-10-03 14:00:00 32.7 -- -- -- -- 0 -- -- 34
2017-10-03 13:00:00 29.3 -- -- -- -- 0 -- -- 44
2017-10-03 12:00:00 26.2 -- -- -- -- 0 -- -- 54
2017-10-03 11:00:00 22.9 -- -- -- -- 0 -- -- 65
2017-10-03 10:00:00 18.1 -- -- -- -- 0 -- -- 83
2017-10-03 09:00:00 17 -- -- -- -- 0 -- -- 85
2017-10-03 08:00:00 17.4 -- -- -- -- 0 -- -- 85
2017-10-03 07:00:00 18.1 -- -- -- -- 0 -- -- 82
2017-10-03 06:00:00 18.9 -- -- -- -- 0 -- -- 78
2017-10-03 05:00:00 19.9 -- -- -- -- 0 -- -- 75
2017-10-03 04:00:00 21.1 -- -- -- -- 0 -- -- 70
2017-10-03 03:00:00 22.1 -- -- -- -- 0 -- -- 65
2017-10-03 02:00:00 22.7 -- -- -- -- 0 -- -- 62
2017-10-03 01:00:00 23.5 -- -- -- -- 0 -- -- 59
2017-10-03 00:00:00 24.3 -- -- -- -- 0 -- -- 56
2017-10-02 23:00:00 25 -- -- -- -- 0 -- -- 53
2017-10-02 22:00:00 25.9 -- -- -- -- 0 -- -- 49
2017-10-02 21:00:00 29.3 -- -- -- -- 0 -- -- 39
2017-10-02 20:00:00 32 -- -- -- -- 0 -- -- 32
2017-10-02 19:00:00 34.6 -- -- -- -- 0 -- -- 29
2017-10-02 18:00:00 36.5 -- -- -- -- 0 -- -- 25
2017-10-02 17:00:00 36 -- -- -- -- 0 -- -- 26
2017-10-02 16:00:00 35.7 -- -- -- -- 0 -- -- 26
2017-10-02 15:00:00 34.2 -- -- -- -- 0 -- -- 28
2017-10-02 14:00:00 33 -- -- -- -- 0 -- -- 29
2017-10-02 13:00:00 31.5 -- -- -- -- 0 -- -- 32
2017-10-02 12:00:00 27.9 -- -- -- -- 0 -- -- 37
2017-10-02 11:00:00 23.4 -- -- -- -- 0 -- -- 49
2017-10-02 10:00:00 17.9 -- -- -- -- 0 -- -- 60
2017-10-02 09:00:00 16.4 -- -- -- -- 0 -- -- 71
2017-10-02 08:00:00 17 -- -- -- -- 0 -- -- 67
2017-10-02 07:00:00 17.6 -- -- -- -- 0 -- -- 66
2017-10-02 06:00:00 18.4 -- -- -- -- 0 -- -- 66
2017-10-02 05:00:00 19.5 -- -- -- -- 0 -- -- 61
2017-10-02 04:00:00 20.7 -- -- -- -- 0 -- -- 54
2017-10-02 03:00:00 22 -- -- -- -- 0 -- -- 46
2017-10-02 02:00:00 23.4 -- -- -- -- 0 -- -- 44
2017-10-02 01:00:00 24.8 -- -- -- -- 0 -- -- 40
2017-10-02 00:00:00 25.6 -- -- -- -- 0 -- -- 40
2017-10-01 23:00:00 26.3 -- -- -- -- 0 -- -- 37
2017-10-01 22:00:00 28.2 -- -- -- -- 0 -- -- 31
2017-10-01 21:00:00 29.5 -- -- -- -- 0 -- -- 28
2017-10-01 20:00:00 31 -- -- -- -- 0 -- -- 27
2017-10-01 19:00:00 32.1 -- -- -- -- 0 -- -- 26
2017-10-01 18:00:00 32.9 -- -- -- -- 0 -- -- 26
2017-10-01 17:00:00 32.9 -- -- -- -- 0 -- -- 26
2017-10-01 16:00:00 32.4 -- -- -- -- 0 -- -- 28
2017-10-01 15:00:00 31.9 -- -- -- -- 0 -- -- 30
2017-10-01 14:00:00 29.3 -- -- -- -- 0 -- -- 32
2017-10-01 13:00:00 27.6 -- -- -- -- 0 -- -- 36
2017-10-01 12:00:00 23.6 -- -- -- -- 0 -- -- 45
2017-10-01 11:00:00 20.2 -- -- -- -- 0 -- -- 54
2017-10-01 10:00:00 16.6 -- -- -- -- 0 -- -- 64
2017-10-01 09:00:00 14.9 -- -- -- -- 0 -- -- 66
2017-10-01 08:00:00 15 -- -- -- -- 0 -- -- 64
2017-10-01 07:00:00 15.3 -- -- -- -- 0 -- -- 61
2017-10-01 06:00:00 15.8 -- -- -- -- 0 -- -- 58
2017-10-01 05:00:00 16.2 -- -- -- -- 0 -- -- 55
2017-10-01 04:00:00 16.7 -- -- -- -- 0 -- -- 54
2017-10-01 03:00:00 17.7 -- -- -- -- 0 -- -- 50
2017-10-01 02:00:00 19 -- -- -- -- 0 -- -- 44
2017-10-01 01:00:00 20.2 -- -- -- -- 0 -- -- 43
2017-10-01 00:00:00 22 -- -- -- -- 0 -- -- 42
2017-09-30 23:00:00 23.8 -- -- -- -- 0 -- -- 37
2017-09-30 22:00:00 25.3 -- -- -- -- 0 -- -- 35
2017-09-30 21:00:00 26.6 -- -- -- -- 0 -- -- 42
2017-09-30 20:00:00 28.1 -- -- -- -- 0 -- -- 41
2017-09-30 19:00:00 29.9 -- -- -- -- 0 -- -- 38
2017-09-30 18:00:00 30.9 -- -- -- -- 0 -- -- 33
2017-09-30 17:00:00 30.7 -- -- -- -- 0 -- -- 33
2017-09-30 16:00:00 31.1 -- -- -- -- 0 -- -- 31
2017-09-30 15:00:00 30.7 -- -- -- -- 0 -- -- 35
2017-09-30 14:00:00 29.5 -- -- -- -- 0 -- -- 42
2017-09-30 13:00:00 27.7 -- -- -- -- 0 -- -- 46
2017-09-30 12:00:00 24.7 -- -- -- -- 0 -- -- 59
2017-09-30 11:00:00 21.3 -- -- -- -- 0 -- -- 72
2017-09-30 10:00:00 18.5 -- -- -- -- 0 -- -- 83
2017-09-30 09:00:00 17.4 -- -- -- -- 0 -- -- 85
2017-09-30 08:00:00 17.6 -- -- -- -- 0 -- -- 81
2017-09-30 07:00:00 18.1 -- -- -- -- 0 -- -- 78
2017-09-30 06:00:00 18.7 -- -- -- -- 0 -- -- 74
2017-09-30 05:00:00 19.4 -- -- -- -- 0 -- -- 65
2017-09-30 04:00:00 20.3 -- -- -- -- 0 -- -- 59
2017-09-30 03:00:00 20.9 -- -- -- -- 0 -- -- 53
2017-09-30 02:00:00 21.6 -- -- -- -- 0 -- -- 50
2017-09-30 01:00:00 22.5 -- -- -- -- 0 -- -- 46
2017-09-30 00:00:00 23.9 -- -- -- -- 0 -- -- 43
2017-09-29 23:00:00 25.2 -- -- -- -- 0 -- -- 40
2017-09-29 22:00:00 26.7 -- -- -- -- 0 -- -- 38
2017-09-29 21:00:00 27.6 -- -- -- -- 0 -- -- 40
2017-09-29 20:00:00 29.6 -- -- -- -- 0 -- -- 35
2017-09-29 19:00:00 32 -- -- -- -- 0 -- -- 30
2017-09-29 18:00:00 32.8 -- -- -- -- 0 -- -- 29
2017-09-29 17:00:00 33.2 -- -- -- -- 0 -- -- 27
2017-09-29 16:00:00 34.3 -- -- -- -- 0 -- -- 27
2017-09-29 15:00:00 32.2 -- -- -- -- 0 -- -- 30
2017-09-29 14:00:00 30.1 -- -- -- -- 0 -- -- 33
2017-09-29 13:00:00 27.8 -- -- -- -- 0 -- -- 37
2017-09-29 12:00:00 25.4 -- -- -- -- 0 -- -- 42
2017-09-29 11:00:00 21.9 -- -- -- -- 0 -- -- 52
2017-09-29 10:00:00 17.6 -- -- -- -- 0 -- -- 68
2017-09-29 09:00:00 16.4 -- -- -- -- 0 -- -- 75
2017-09-29 08:00:00 16.5 -- -- -- -- 0 -- -- 71
2017-09-29 07:00:00 16.8 -- -- -- -- 0 -- -- 72
2017-09-29 06:00:00 17.2 -- -- -- -- 0 -- -- 72
2017-09-29 05:00:00 17.8 -- -- -- -- 0 -- -- 71
2017-09-29 04:00:00 18.6 -- -- -- -- 0 -- -- 66
2017-09-29 03:00:00 20 -- -- -- -- 0 -- -- 63
2017-09-29 02:00:00 20.9 -- -- -- -- 0 -- -- 57
2017-09-29 01:00:00 22.1 -- -- -- -- 0 -- -- 53
2017-09-29 00:00:00 23.5 -- -- -- -- 0 -- -- 49
2017-09-28 23:00:00 24.7 -- -- -- -- 0 -- -- 47
2017-09-28 22:00:00 26.2 -- -- -- -- 0 -- -- 44
2017-09-28 21:00:00 27.4 -- -- -- -- 0 -- -- 42
2017-09-28 20:00:00 29.2 -- -- -- -- 0 -- -- 38
2017-09-28 19:00:00 31.5 -- -- -- -- 0 -- -- 33
2017-09-28 18:00:00 33.4 -- -- -- -- 0 -- -- 29
2017-09-28 17:00:00 32.5 -- -- -- -- 0 -- -- 31
2017-09-28 16:00:00 32.7 -- -- -- -- 0 -- -- 30
2017-09-28 15:00:00 33.1 -- -- -- -- 0 -- -- 29
2017-09-28 14:00:00 31.8 -- -- -- -- 0 -- -- 32
2017-09-28 13:00:00 29.9 -- -- -- -- 0 -- -- 35
2017-09-28 12:00:00 24.6 -- -- -- -- 0 -- -- 52
2017-09-28 11:00:00 20.5 -- -- -- -- 0 -- -- 68
2017-09-28 10:00:00 19.6 -- -- -- -- 0 -- -- 73
2017-09-28 09:00:00 19.5 -- -- -- -- 0 -- -- 72
2017-09-28 08:00:00 19.7 -- -- -- -- 0 -- -- 69
2017-09-28 07:00:00 19.8 -- -- -- -- 0 -- -- 67
2017-09-28 06:00:00 19.8 -- -- -- -- 0 -- -- 61
2017-09-28 05:00:00 20.1 -- -- -- -- 0 -- -- 52
2017-09-28 04:00:00 21 -- -- -- -- 0 -- -- 46
2017-09-28 03:00:00 21.7 -- -- -- -- 0 -- -- 42
2017-09-28 02:00:00 22.3 -- -- -- -- 0 -- -- 48
2017-09-28 01:00:00 22.7 -- -- -- -- 0 -- -- 53
2017-09-28 00:00:00 23.2 -- -- -- -- 0 -- -- 64
2017-09-27 23:00:00 23.6 -- -- -- -- 0 -- -- 61
2017-09-27 22:00:00 24.1 -- -- -- -- 0 -- -- 57
2017-09-27 21:00:00 24.6 -- -- -- -- 0 -- -- 55
2017-09-27 20:00:00 25.1 -- -- -- -- 0 -- -- 53
2017-09-27 19:00:00 25.3 -- -- -- -- 0 -- -- 53
2017-09-27 18:00:00 25.6 -- -- -- -- 0 -- -- 52
2017-09-27 17:00:00 26.3 -- -- -- -- 0 -- -- 49
2017-09-27 16:00:00 28.3 -- -- -- -- 0 -- -- 45
2017-09-27 15:00:00 27 -- -- -- -- 0 -- -- 50
2017-09-27 14:00:00 24.8 -- -- -- -- 0 -- -- 57
2017-09-27 13:00:00 23.7 -- -- -- -- 0 -- -- 61
2017-09-27 12:00:00 22.5 -- -- -- -- 0 -- -- 66
2017-09-27 11:00:00 19.9 -- -- -- -- 0 -- -- 69
2017-09-27 10:00:00 17.6 -- -- -- -- 0 -- -- 56
2017-09-27 09:00:00 16.6 -- -- -- -- 0 -- -- 62
2017-09-27 08:00:00 16.3 -- -- -- -- 0 -- -- 63
2017-09-27 07:00:00 16.4 -- -- -- -- 0 -- -- 58
2017-09-27 06:00:00 16.8 -- -- -- -- 0 -- -- 58
2017-09-27 05:00:00 17.1 -- -- -- -- 0 -- -- 54
2017-09-27 04:00:00 17.4 -- -- -- -- 0 -- -- 50
2017-09-27 03:00:00 17.9 -- -- -- -- 0 -- -- 49
2017-09-27 02:00:00 19 -- -- -- -- 0 -- -- 45
2017-09-27 01:00:00 20.3 -- -- -- -- 0 -- -- 42
2017-09-27 00:00:00 21.9 -- -- -- -- 0 -- -- 40
2017-09-26 23:00:00 22.8 -- -- -- -- 0 -- -- 38
2017-09-26 22:00:00 23.5 -- -- -- -- 0 -- -- 38
2017-09-26 21:00:00 26.2 -- -- -- -- 0 -- -- 30
2017-09-26 20:00:00 28.8 -- -- -- -- 0 -- -- 25
2017-09-26 19:00:00 30.6 -- -- -- -- 0 -- -- 21
2017-09-26 18:00:00 31 -- -- -- -- 0 -- -- 21
2017-09-26 17:00:00 31.8 -- -- -- -- 0 -- -- 21
2017-09-26 16:00:00 29.9 -- -- -- -- 0 -- -- 24
2017-09-26 15:00:00 29.7 -- -- -- -- 0 -- -- 29
2017-09-26 14:00:00 27.1 -- -- -- -- 0 -- -- 38
2017-09-26 13:00:00 23.2 -- -- -- -- 0 -- -- 50
2017-09-26 12:00:00 20.8 -- -- -- -- 0 -- -- 58
2017-09-26 11:00:00 17.3 -- -- -- -- 0 -- -- 72
2017-09-26 10:00:00 13.9 -- -- -- -- 0 -- -- 86
2017-09-26 09:00:00 12.6 -- -- -- -- 0 -- -- 90
2017-09-26 08:00:00 12.8 -- -- -- -- 0 -- -- 86
2017-09-26 07:00:00 13.4 -- -- -- -- 0 -- -- 82
2017-09-26 06:00:00 14.1 -- -- -- -- 0 -- -- 76
2017-09-26 05:00:00 14.9 -- -- -- -- 0 -- -- 69
2017-09-26 04:00:00 16.1 -- -- -- -- 0 -- -- 62
2017-09-26 03:00:00 17.5 -- -- -- -- 0 -- -- 56
2017-09-26 02:00:00 19.2 -- -- -- -- 0 -- -- 47
2017-09-26 01:00:00 21 -- -- -- -- 0 -- -- 42
2017-09-26 00:00:00 22.6 -- -- -- -- 0 -- -- 40
2017-09-25 23:00:00 23.8 -- -- -- -- 0 -- -- 39
2017-09-25 22:00:00 25.7 -- -- -- -- 0 -- -- 30
2017-09-25 21:00:00 26.9 -- -- -- -- 0 -- -- 27
2017-09-25 20:00:00 28.9 -- -- -- -- 0 -- -- 25
2017-09-25 19:00:00 30.7 -- -- -- -- 0 -- -- 22
2017-09-25 18:00:00 31.7 -- -- -- -- 0 -- -- 21
2017-09-25 17:00:00 31.6 -- -- -- -- 0 -- -- 21
2017-09-25 16:00:00 30.9 -- -- -- -- 0 -- -- 22
2017-09-25 15:00:00 30.5 -- -- -- -- 0 -- -- 25
2017-09-25 14:00:00 28.4 -- -- -- -- 0 -- -- 33
2017-09-25 13:00:00 26.7 -- -- -- -- 0 -- -- 37
2017-09-25 12:00:00 24.7 -- -- -- -- 0 -- -- 43
2017-09-25 11:00:00 21.6 -- -- -- -- 0 -- -- 63
2017-09-25 10:00:00 18.3 -- -- -- -- 0 -- -- 81
2017-09-25 09:00:00 16.5 -- -- -- -- 0 -- -- 86
2017-09-25 08:00:00 16.6 -- -- -- -- 0 -- -- 81
2017-09-25 07:00:00 16.6 -- -- -- -- 0 -- -- 79
2017-09-25 06:00:00 16.4 -- -- -- -- 0 -- -- 75
2017-09-25 05:00:00 16.9 -- -- -- -- 0 -- -- 68
2017-09-25 04:00:00 17.3 -- -- -- -- 0 -- -- 59
2017-09-25 03:00:00 17.6 -- -- -- -- 0 -- -- 45
2017-09-25 02:00:00 18.7 -- -- -- -- 0 -- -- 30
2017-09-25 01:00:00 20 -- -- -- -- 0 -- -- 24
2017-09-25 00:00:00 21.8 -- -- -- -- 0 -- -- 27
2017-09-24 23:00:00 23.4 -- -- -- -- 0 -- -- 39
2017-09-24 22:00:00 25.1 -- -- -- -- 0 -- -- 37
2017-09-24 21:00:00 27.4 -- -- -- -- 0 -- -- 32
2017-09-24 20:00:00 29.9 -- -- -- -- 0 -- -- 39
2017-09-24 19:00:00 31.8 -- -- -- -- 0 -- -- 31
2017-09-24 18:00:00 33.3 -- -- -- -- 0 -- -- 28
2017-09-24 17:00:00 34.9 -- -- -- -- 0 -- -- 23
2017-09-24 16:00:00 33.9 -- -- -- -- 0 -- -- 27
2017-09-24 15:00:00 31.6 -- -- -- -- 0 -- -- 32
2017-09-24 14:00:00 31.6 -- -- -- -- 0 -- -- 32
2017-09-24 13:00:00 27.4 -- -- -- -- 0 -- -- 41
2017-09-24 12:00:00 24 -- -- -- -- 0 -- -- 51
2017-09-24 11:00:00 20.5 -- -- -- -- 0 -- -- 61
2017-09-24 10:00:00 15.8 -- -- -- -- 0 -- -- 77
2017-09-24 09:00:00 14.5 -- -- -- -- 0 -- -- 85
2017-09-24 08:00:00 14.8 -- -- -- -- 0 -- -- 84
2017-09-24 07:00:00 15.5 -- -- -- -- 0 -- -- 80
2017-09-24 06:00:00 16.3 -- -- -- -- 0 -- -- 76
2017-09-24 05:00:00 16.8 -- -- -- -- 0 -- -- 74
2017-09-24 04:00:00 17.6 -- -- -- -- 0 -- -- 72
2017-09-24 03:00:00 18.4 -- -- -- -- 0 -- -- 70
2017-09-24 02:00:00 19.2 -- -- -- -- 0 -- -- 66
2017-09-24 01:00:00 20.3 -- -- -- -- 0 -- -- 63
2017-09-24 00:00:00 21.5 -- -- -- -- 0 -- -- 62
2017-09-23 23:00:00 22.9 -- -- -- -- 0 -- -- 60
2017-09-23 22:00:00 24.4 -- -- -- -- 0 -- -- 58
2017-09-23 21:00:00 26.6 -- -- -- -- 0 -- -- 49
2017-09-23 20:00:00 30.1 -- -- -- -- 0 -- -- 29
2017-09-23 19:00:00 31.4 -- -- -- -- 0 -- -- 25
2017-09-23 18:00:00 31.7 -- -- -- -- 0 -- -- 26
2017-09-23 17:00:00 31.6 -- -- -- -- 0 -- -- 27
2017-09-23 16:00:00 -- -- -- -- -- 0 -- -- --
2017-09-23 15:00:00 29.7 -- -- -- -- 0 -- -- 33
2017-09-23 14:00:00 28.1 -- -- -- -- 0 -- -- 38
2017-09-23 13:00:00 27.2 -- -- -- -- 0 -- -- 44
2017-09-23 12:00:00 24.6 -- -- -- -- 0 -- -- 52
2017-09-23 11:00:00 20 -- -- -- -- 0 -- -- 65
2017-09-23 10:00:00 15.5 -- -- -- -- 0 -- -- 81
2017-09-23 09:00:00 13.9 -- -- -- -- 0 -- -- 87
2017-09-23 08:00:00 13.7 -- -- -- -- 0 -- -- 86
2017-09-23 07:00:00 14.2 -- -- -- -- 0 -- -- 85
2017-09-23 06:00:00 14.7 -- -- -- -- 0 -- -- 83
2017-09-23 05:00:00 15.5 -- -- -- -- 0 -- -- 80
2017-09-23 04:00:00 16.5 -- -- -- -- 0 -- -- 76
2017-09-23 03:00:00 17.4 -- -- -- -- 0 -- -- 71
2017-09-23 02:00:00 18.6 -- -- -- -- 0 -- -- 64
2017-09-23 01:00:00 19.9 -- -- -- -- 0 -- -- 61
2017-09-23 00:00:00 21.4 -- -- -- -- 0 -- -- 55